createdAt,value
2022-10-01T00:00:56.747Z,3.60
2022-10-01T00:01:56.785Z,4.20
2022-10-01T00:02:56.804Z,4.20
2022-10-01T00:03:56.740Z,3.80
2022-10-01T00:04:56.709Z,3.80
2022-10-01T00:05:56.688Z,3.90
2022-10-01T00:06:56.666Z,3.60
2022-10-01T00:07:56.662Z,3.80
2022-10-01T00:08:56.701Z,3.80
2022-10-01T00:09:56.654Z,3.80
2022-10-01T00:10:56.628Z,4.10
2022-10-01T00:11:56.621Z,3.60
2022-10-01T00:12:56.586Z,4.00
2022-10-01T00:13:56.584Z,3.90
2022-10-01T00:14:56.630Z,4.30
2022-10-01T00:15:56.562Z,3.70
2022-10-01T00:16:56.579Z,3.70
2022-10-01T00:17:56.544Z,4.00
2022-10-01T00:18:56.526Z,4.10
2022-10-01T00:19:56.635Z,4.30
2022-10-01T00:20:56.477Z,3.90
2022-10-01T00:21:56.492Z,4.00
2022-10-01T00:22:56.458Z,4.40
2022-10-01T00:23:56.460Z,3.80
2022-10-01T00:24:56.464Z,3.80
2022-10-01T00:25:56.458Z,3.70
2022-10-01T00:26:56.406Z,3.60
2022-10-01T00:27:56.429Z,3.90
2022-10-01T00:28:56.387Z,3.80
2022-10-01T00:29:56.380Z,3.80
2022-10-01T00:30:56.418Z,4.10
2022-10-01T00:31:56.390Z,3.60
2022-10-01T00:32:56.332Z,3.60
2022-10-01T00:33:56.324Z,3.60
2022-10-01T00:34:56.311Z,3.70
2022-10-01T00:35:56.354Z,3.70
2022-10-01T00:36:56.282Z,4.00
2022-10-01T00:37:56.286Z,3.60
2022-10-01T00:38:56.272Z,3.90
2022-10-01T00:39:56.251Z,3.60
2022-10-01T00:40:56.232Z,3.60
2022-10-01T00:41:56.251Z,3.80
2022-10-01T00:42:56.197Z,3.70
2022-10-01T00:43:56.211Z,3.50
2022-10-01T00:44:56.172Z,4.30
2022-10-01T00:45:56.223Z,3.90
2022-10-01T00:46:56.179Z,3.70
2022-10-01T00:47:56.164Z,3.50
2022-10-01T00:48:56.121Z,3.90
2022-10-01T00:49:59.323Z,3.40
2022-10-01T00:50:56.094Z,3.70
2022-10-01T00:51:56.112Z,3.20
2022-10-01T00:52:56.112Z,3.80
2022-10-01T00:53:56.073Z,3.70
2022-10-01T00:54:56.059Z,3.60
2022-10-01T00:55:56.056Z,3.40
2022-10-01T00:56:56.034Z,3.50
2022-10-01T00:57:56.038Z,3.80
2022-10-01T00:58:56.003Z,3.70
2022-10-01T00:59:55.985Z,3.20
2022-10-01T01:00:55.999Z,3.30
2022-10-01T01:01:56.117Z,3.50
2022-10-01T01:02:55.955Z,3.50
2022-10-01T01:03:55.973Z,3.60
2022-10-01T01:04:55.936Z,4.10
2022-10-01T01:05:55.987Z,3.50
2022-10-01T01:06:55.905Z,3.50
2022-10-01T01:07:55.881Z,3.30
2022-10-01T01:08:55.910Z,3.50
2022-10-01T01:09:55.856Z,3.30
2022-10-01T01:10:55.873Z,3.50
2022-10-01T01:11:55.822Z,3.20
2022-10-01T01:12:55.828Z,3.40
2022-10-01T01:13:55.790Z,3.70
2022-10-01T01:14:55.832Z,3.20
2022-10-01T01:15:55.817Z,3.40
2022-10-01T01:16:55.776Z,3.10
2022-10-01T01:17:55.754Z,3.40
2022-10-01T01:18:55.745Z,3.40
2022-10-01T01:19:55.768Z,3.60
2022-10-01T01:20:55.727Z,3.20
2022-10-01T01:21:55.706Z,2.80
2022-10-01T01:22:55.705Z,3.20
2022-10-01T01:23:55.682Z,3.50
2022-10-01T01:24:55.670Z,3.10
2022-10-01T01:25:55.678Z,3.20
2022-10-01T01:26:55.641Z,3.00
2022-10-01T01:27:55.676Z,3.20
2022-10-01T01:28:55.622Z,3.10
2022-10-01T01:29:55.593Z,3.10
2022-10-01T01:30:55.710Z,3.30
2022-10-01T01:31:55.570Z,3.10
2022-10-01T01:32:55.567Z,3.00
2022-10-01T01:33:55.548Z,3.10
2022-10-01T01:34:55.545Z,3.50
2022-10-01T01:35:55.519Z,3.20
2022-10-01T01:36:55.548Z,3.30
2022-10-01T01:37:55.491Z,3.00
2022-10-01T01:38:55.487Z,3.20
2022-10-01T01:39:55.472Z,3.30
2022-10-01T01:40:55.470Z,3.00
2022-10-01T01:41:55.469Z,2.90
2022-10-01T01:42:55.438Z,3.20
2022-10-01T01:43:55.412Z,2.90
2022-10-01T01:44:55.413Z,3.40
2022-10-01T01:45:55.528Z,3.00
2022-10-01T01:46:55.396Z,3.20
2022-10-01T01:47:55.398Z,2.90
2022-10-01T01:48:55.361Z,3.10
2022-10-01T01:49:55.332Z,3.00
2022-10-01T01:50:55.335Z,2.70
2022-10-01T01:51:55.308Z,2.70
2022-10-01T01:52:55.347Z,2.80
2022-10-01T01:53:55.291Z,3.10
2022-10-01T01:54:55.278Z,2.90
2022-10-01T01:55:55.265Z,2.50
2022-10-01T01:56:55.257Z,2.90
2022-10-01T01:57:55.249Z,3.00
2022-10-01T01:58:55.261Z,2.50
2022-10-01T01:59:55.210Z,2.90
2022-10-01T02:00:55.203Z,2.90
2022-10-01T02:01:55.342Z,2.70
2022-10-01T02:02:55.224Z,3.20
2022-10-01T02:03:55.275Z,2.70
2022-10-01T02:04:55.158Z,2.90
2022-10-01T02:05:55.144Z,2.80
2022-10-01T02:06:55.189Z,2.90
2022-10-01T02:07:55.106Z,2.50
2022-10-01T02:08:55.123Z,2.70
2022-10-01T02:09:55.147Z,2.70
2022-10-01T02:10:55.083Z,2.90
2022-10-01T02:11:55.050Z,3.00
2022-10-01T02:12:55.063Z,2.90
2022-10-01T02:13:55.030Z,2.40
2022-10-01T02:14:55.072Z,2.60
2022-10-01T02:15:55.113Z,2.70
2022-10-01T02:16:55.001Z,2.50
2022-10-01T02:17:54.978Z,2.70
2022-10-01T02:18:54.971Z,2.60
2022-10-01T02:19:54.964Z,2.50
2022-10-01T02:20:55.017Z,2.70
2022-10-01T02:21:54.942Z,2.80
2022-10-01T02:22:54.932Z,2.70
2022-10-01T02:23:54.902Z,2.80
2022-10-01T02:24:54.904Z,2.60
2022-10-01T02:25:54.903Z,2.90
2022-10-01T02:26:54.875Z,2.70
2022-10-01T02:27:54.908Z,2.60
2022-10-01T02:28:54.900Z,2.70
2022-10-01T02:29:54.825Z,2.70
2022-10-01T02:30:54.903Z,2.60
2022-10-01T02:31:54.814Z,2.40
2022-10-01T02:32:54.809Z,2.90
2022-10-01T02:33:54.767Z,2.70
2022-10-01T02:34:54.763Z,2.80
2022-10-01T02:35:54.739Z,2.90
2022-10-01T02:36:54.789Z,2.60
2022-10-01T02:37:54.721Z,2.70
2022-10-01T02:38:54.716Z,2.90
2022-10-01T02:39:54.699Z,2.80
2022-10-01T02:40:54.688Z,2.70
2022-10-01T02:41:54.662Z,2.80
2022-10-01T02:42:54.690Z,2.90
2022-10-01T02:43:54.637Z,2.50
2022-10-01T02:44:54.635Z,2.80
2022-10-01T02:45:54.662Z,2.80
2022-10-01T02:46:54.612Z,2.70
2022-10-01T02:47:54.625Z,2.60
2022-10-01T02:48:54.586Z,2.90
2022-10-01T02:49:54.561Z,2.90
2022-10-01T02:50:54.558Z,2.80
2022-10-01T02:51:54.533Z,2.80
2022-10-01T02:52:54.534Z,2.80
2022-10-01T02:53:54.531Z,2.80
2022-10-01T02:54:54.503Z,3.20
2022-10-01T02:55:54.481Z,2.80
2022-10-01T02:56:56.328Z,2.90
2022-10-01T02:57:54.466Z,3.40
2022-10-01T02:58:54.482Z,3.20
2022-10-01T02:59:54.443Z,3.00
2022-10-01T03:00:54.447Z,3.00
2022-10-01T03:01:54.522Z,2.80
2022-10-01T03:02:54.497Z,2.80
2022-10-01T03:03:54.377Z,2.90
2022-10-01T03:04:54.413Z,3.20
2022-10-01T03:05:54.354Z,3.30
2022-10-01T03:06:54.362Z,3.00
2022-10-01T03:07:54.341Z,3.40
2022-10-01T03:08:54.320Z,2.90
2022-10-01T03:09:54.343Z,3.10
2022-10-01T03:10:54.301Z,3.00
2022-10-01T03:11:54.279Z,3.10
2022-10-01T03:12:54.270Z,3.10
2022-10-01T03:13:54.249Z,3.00
2022-10-01T03:14:54.245Z,2.90
2022-10-01T03:15:54.316Z,3.20
2022-10-01T03:16:54.221Z,3.10
2022-10-01T03:17:54.193Z,3.10
2022-10-01T03:18:54.199Z,3.10
2022-10-01T03:19:54.167Z,3.30
2022-10-01T03:20:54.220Z,3.30
2022-10-01T03:21:54.149Z,3.40
2022-10-01T03:22:54.159Z,3.00
2022-10-01T03:23:54.141Z,3.70
2022-10-01T03:24:54.120Z,3.20
2022-10-01T03:25:54.094Z,3.20
2022-10-01T03:26:54.132Z,3.30
2022-10-01T03:27:54.113Z,3.30
2022-10-01T03:28:54.095Z,3.30
2022-10-01T03:29:54.059Z,3.10
2022-10-01T03:30:54.142Z,3.40
2022-10-01T03:31:54.206Z,3.40
2022-10-01T03:32:54.030Z,3.30
2022-10-01T03:33:53.991Z,3.20
2022-10-01T03:34:53.998Z,3.50
2022-10-01T03:35:53.973Z,3.30
2022-10-01T03:36:53.979Z,3.20
2022-10-01T03:37:53.975Z,4.20
2022-10-01T03:38:53.950Z,3.40
2022-10-01T03:39:53.914Z,3.80
2022-10-01T03:40:53.918Z,3.60
2022-10-01T03:41:53.886Z,3.60
2022-10-01T03:42:53.938Z,3.50
2022-10-01T03:43:58.329Z,3.30
2022-10-01T03:44:53.872Z,3.30
2022-10-01T03:45:53.852Z,3.50
2022-10-01T03:46:53.835Z,3.60
2022-10-01T03:47:53.809Z,3.40
2022-10-01T03:48:53.835Z,3.50
2022-10-01T03:49:53.780Z,3.40
2022-10-01T03:50:53.778Z,3.60
2022-10-01T03:51:53.753Z,3.50
2022-10-01T03:52:53.760Z,3.50
2022-10-01T03:53:53.776Z,3.70
2022-10-01T03:54:53.741Z,3.80
2022-10-01T03:55:53.709Z,3.80
2022-10-01T03:56:53.705Z,3.80
2022-10-01T03:57:53.677Z,3.80
2022-10-01T03:58:53.694Z,4.00
2022-10-01T03:59:53.685Z,3.70
2022-10-01T04:00:53.654Z,4.00
2022-10-01T04:01:53.700Z,4.10
2022-10-01T04:02:53.693Z,3.80
2022-10-01T04:03:53.600Z,4.00
2022-10-01T04:04:53.643Z,3.90
2022-10-01T04:05:53.585Z,4.00
2022-10-01T04:06:53.586Z,4.10
2022-10-01T04:07:53.552Z,3.90
2022-10-01T04:08:53.552Z,3.70
2022-10-01T04:09:53.527Z,3.70
2022-10-01T04:10:53.551Z,3.80
2022-10-01T04:11:53.547Z,3.90
2022-10-01T04:12:53.504Z,3.40
2022-10-01T04:13:53.478Z,4.30
2022-10-01T04:14:53.474Z,3.70
2022-10-01T04:15:53.522Z,3.90
2022-10-01T04:16:53.449Z,3.90
2022-10-01T04:17:53.424Z,3.90
2022-10-01T04:18:53.433Z,4.30
2022-10-01T04:19:53.400Z,4.10
2022-10-01T04:20:53.392Z,4.30
2022-10-01T04:21:53.391Z,3.90
2022-10-01T04:22:53.388Z,3.70
2022-10-01T04:23:53.340Z,4.30
2022-10-01T04:24:53.345Z,3.70
2022-10-01T04:25:53.320Z,4.10
2022-10-01T04:26:53.365Z,4.00
2022-10-01T04:27:53.343Z,4.10
2022-10-01T04:28:53.307Z,4.10
2022-10-01T04:29:53.275Z,4.20
2022-10-01T04:30:53.270Z,3.90
2022-10-01T04:31:53.269Z,4.60
2022-10-01T04:32:53.266Z,4.00
2022-10-01T04:33:53.209Z,4.00
2022-10-01T04:34:53.215Z,4.10
2022-10-01T04:35:53.192Z,4.00
2022-10-01T04:36:53.187Z,4.30
2022-10-01T04:37:53.210Z,4.10
2022-10-01T04:38:55.701Z,4.30
2022-10-01T04:39:53.147Z,4.20
2022-10-01T04:40:53.144Z,3.90
2022-10-01T04:41:53.122Z,3.90
2022-10-01T04:42:53.117Z,3.80
2022-10-01T04:43:53.112Z,4.10
2022-10-01T04:44:53.103Z,3.90
2022-10-01T04:45:53.064Z,4.30
2022-10-01T04:46:53.131Z,4.20
2022-10-01T04:47:53.039Z,4.00
2022-10-01T04:48:53.089Z,4.10
2022-10-01T04:49:53.031Z,4.00
2022-10-01T04:50:53.008Z,4.00
2022-10-01T04:51:52.983Z,4.30
2022-10-01T04:52:52.992Z,4.00
2022-10-01T04:53:52.960Z,3.90
2022-10-01T04:54:52.992Z,4.40
2022-10-01T04:55:52.936Z,4.20
2022-10-01T04:56:52.931Z,4.00
2022-10-01T04:57:52.909Z,4.30
2022-10-01T04:58:52.905Z,4.30
2022-10-01T04:59:52.919Z,4.00
2022-10-01T05:00:52.914Z,4.70
2022-10-01T05:01:52.932Z,4.00
2022-10-01T05:02:52.854Z,4.00
2022-10-01T05:03:52.833Z,4.30
2022-10-01T05:04:52.841Z,4.00
2022-10-01T05:05:52.833Z,4.10
2022-10-01T05:06:52.807Z,4.20
2022-10-01T05:07:52.786Z,4.70
2022-10-01T05:08:52.793Z,4.00
2022-10-01T05:09:52.800Z,4.30
2022-10-01T05:10:52.795Z,4.20
2022-10-01T05:11:52.744Z,4.50
2022-10-01T05:12:52.733Z,4.20
2022-10-01T05:13:52.659Z,4.60
2022-10-01T05:14:52.690Z,4.30
2022-10-01T05:15:52.744Z,4.10
2022-10-01T05:16:52.638Z,4.80
2022-10-01T05:17:52.610Z,4.30
2022-10-01T05:18:52.587Z,4.90
2022-10-01T05:19:52.598Z,4.30
2022-10-01T05:20:52.554Z,4.40
2022-10-01T05:21:52.601Z,4.60
2022-10-01T05:22:52.532Z,4.20
2022-10-01T05:23:52.530Z,4.70
2022-10-01T05:24:52.507Z,4.40
2022-10-01T05:25:52.522Z,4.70
2022-10-01T05:26:52.490Z,4.70
2022-10-01T05:27:52.547Z,4.30
2022-10-01T05:28:52.451Z,4.80
2022-10-01T05:29:52.445Z,4.30
2022-10-01T05:30:52.451Z,4.90
2022-10-01T05:31:52.477Z,4.60
2022-10-01T05:32:52.433Z,4.60
2022-10-01T05:33:52.406Z,4.70
2022-10-01T05:34:53.764Z,4.50
2022-10-01T05:35:52.375Z,4.50
2022-10-01T05:36:52.372Z,4.00
2022-10-01T05:37:52.353Z,4.80
2022-10-01T05:38:52.381Z,4.70
2022-10-01T05:39:52.339Z,4.60
2022-10-01T05:40:52.295Z,4.60
2022-10-01T05:41:52.331Z,4.90
2022-10-01T05:42:52.273Z,4.50
2022-10-01T05:43:52.314Z,4.10
2022-10-01T05:44:52.260Z,4.50
2022-10-01T05:45:52.303Z,4.40
2022-10-01T05:46:52.255Z,4.60
2022-10-01T05:47:52.265Z,4.50
2022-10-01T05:48:52.271Z,4.70
2022-10-01T05:49:52.328Z,4.40
2022-10-01T05:50:52.195Z,4.70
2022-10-01T05:51:52.196Z,4.10
2022-10-01T05:52:52.270Z,4.20
2022-10-01T05:53:52.223Z,4.00
2022-10-01T05:54:52.221Z,4.10
2022-10-01T05:55:52.117Z,4.20
2022-10-01T05:56:52.106Z,4.20
2022-10-01T05:57:52.097Z,4.70
2022-10-01T05:58:52.115Z,4.20
2022-10-01T05:59:52.070Z,4.50
2022-10-01T06:00:52.093Z,4.00
2022-10-01T06:01:52.163Z,4.00
2022-10-01T06:02:52.204Z,4.30
2022-10-01T06:03:52.046Z,4.20
2022-10-01T06:04:52.095Z,4.30
2022-10-01T06:05:51.997Z,4.00
2022-10-01T06:06:52.025Z,4.40
2022-10-01T06:07:52.031Z,4.40
2022-10-01T06:08:51.947Z,4.40
2022-10-01T06:09:51.991Z,4.60
2022-10-01T06:10:51.924Z,4.40
2022-10-01T06:11:51.989Z,4.10
2022-10-01T06:12:51.973Z,4.10
2022-10-01T06:13:51.895Z,4.10
2022-10-01T06:14:51.899Z,4.30
2022-10-01T06:15:51.866Z,4.00
2022-10-01T06:16:51.922Z,4.10
2022-10-01T06:17:51.845Z,3.70
2022-10-01T06:18:51.955Z,4.00
2022-10-01T06:19:51.820Z,3.70
2022-10-01T06:20:51.786Z,3.70
2022-10-01T06:21:51.810Z,4.00
2022-10-01T06:22:51.770Z,3.60
2022-10-01T06:23:51.877Z,4.20
2022-10-01T06:24:56.006Z,3.50
2022-10-01T06:25:51.793Z,3.80
2022-10-01T06:26:51.718Z,3.70
2022-10-01T06:27:51.816Z,3.70
2022-10-01T06:28:51.689Z,3.70
2022-10-01T06:29:51.685Z,3.50
2022-10-01T06:30:51.771Z,3.60
2022-10-01T06:31:51.917Z,3.80
2022-10-01T06:32:51.656Z,3.50
2022-10-01T06:33:51.629Z,4.00
2022-10-01T06:34:51.659Z,3.40
2022-10-01T06:35:51.595Z,3.80
2022-10-01T06:36:51.658Z,4.10
2022-10-01T06:37:51.605Z,3.70
2022-10-01T06:38:51.548Z,3.60
2022-10-01T06:39:51.554Z,3.90
2022-10-01T06:40:51.675Z,3.60
2022-10-01T06:41:51.561Z,3.20
2022-10-01T06:42:56.021Z,3.20
2022-10-01T06:43:52.028Z,3.10
2022-10-01T06:44:51.471Z,3.40
2022-10-01T06:45:51.627Z,3.30
2022-10-01T06:46:51.483Z,3.20
2022-10-01T06:47:51.472Z,3.50
2022-10-01T06:48:51.530Z,3.30
2022-10-01T06:49:51.441Z,3.20
2022-10-01T06:50:51.433Z,3.20
2022-10-01T06:51:51.425Z,3.30
2022-10-01T06:52:51.377Z,3.20
2022-10-01T06:53:51.414Z,3.20
2022-10-01T06:54:51.557Z,2.90
2022-10-01T06:55:51.343Z,3.00
2022-10-01T06:56:51.407Z,3.00
2022-10-01T06:57:51.384Z,2.90
2022-10-01T06:58:51.310Z,2.90
2022-10-01T06:59:51.474Z,3.00
2022-10-01T07:00:51.346Z,3.00
2022-10-01T07:01:56.067Z,3.00
2022-10-01T07:02:51.413Z,2.80
2022-10-01T07:03:51.247Z,2.90
2022-10-01T07:04:51.296Z,2.70
2022-10-01T07:05:51.226Z,2.60
2022-10-01T07:06:51.267Z,2.80
2022-10-01T07:07:51.184Z,3.00
2022-10-01T07:08:51.166Z,2.90
2022-10-01T07:09:51.216Z,3.10
2022-10-01T07:10:51.183Z,2.70
2022-10-01T07:11:51.139Z,2.70
2022-10-01T07:12:51.112Z,2.90
2022-10-01T07:13:54.377Z,2.90
2022-10-01T07:14:51.132Z,2.90
2022-10-01T07:15:51.089Z,3.00
2022-10-01T07:16:51.162Z,3.10
2022-10-01T07:17:51.078Z,2.70
2022-10-01T07:18:51.034Z,2.80
2022-10-01T07:19:51.069Z,3.00
2022-10-01T07:20:51.062Z,2.40
2022-10-01T07:21:51.050Z,2.50
2022-10-01T07:22:51.035Z,2.60
2022-10-01T07:23:50.990Z,2.40
2022-10-01T07:24:51.120Z,2.60
2022-10-01T07:25:50.995Z,2.50
2022-10-01T07:26:51.033Z,2.60
2022-10-01T07:27:50.973Z,2.50
2022-10-01T07:28:51.019Z,2.40
2022-10-01T07:29:50.905Z,2.40
2022-10-01T07:30:50.883Z,2.50
2022-10-01T07:31:50.939Z,2.10
2022-10-01T07:32:50.852Z,2.10
2022-10-01T07:33:50.954Z,2.60
2022-10-01T07:34:51.062Z,2.40
2022-10-01T07:35:50.870Z,2.40
2022-10-01T07:36:50.829Z,2.20
2022-10-01T07:37:50.856Z,2.40
2022-10-01T07:38:50.783Z,2.40
2022-10-01T07:39:50.835Z,2.50
2022-10-01T07:40:50.808Z,2.70
2022-10-01T07:41:50.758Z,2.50
2022-10-01T07:42:50.725Z,2.60
2022-10-01T07:43:50.802Z,2.90
2022-10-01T07:44:50.704Z,2.60
2022-10-01T07:45:50.753Z,2.50
2022-10-01T07:46:50.734Z,2.70
2022-10-01T07:47:50.680Z,2.70
2022-10-01T07:48:50.651Z,2.40
2022-10-01T07:49:50.648Z,2.30
2022-10-01T07:50:50.671Z,2.40
2022-10-01T07:51:50.625Z,2.70
2022-10-01T07:52:50.650Z,2.80
2022-10-01T07:53:50.608Z,2.70
2022-10-01T07:54:50.562Z,2.40
2022-10-01T07:55:50.605Z,2.40
2022-10-01T07:56:50.537Z,2.80
2022-10-01T07:57:50.725Z,2.60
2022-10-01T07:58:50.638Z,2.60
2022-10-01T07:59:55.536Z,2.50
2022-10-01T08:00:50.547Z,2.40
2022-10-01T08:01:50.555Z,2.40
2022-10-01T08:02:50.563Z,2.30
2022-10-01T08:03:50.495Z,2.40
2022-10-01T08:04:50.505Z,2.30
2022-10-01T08:05:50.476Z,2.60
2022-10-01T08:06:50.445Z,2.40
2022-10-01T08:07:50.406Z,2.10
2022-10-01T08:08:50.605Z,2.10
2022-10-01T08:09:50.388Z,2.50
2022-10-01T08:10:50.748Z,2.30
2022-10-01T08:11:50.367Z,2.30
2022-10-01T08:12:50.471Z,2.30
2022-10-01T08:13:50.351Z,2.40
2022-10-01T08:14:50.324Z,2.40
2022-10-01T08:15:50.545Z,2.40
2022-10-01T08:16:50.343Z,2.50
2022-10-01T08:17:50.314Z,2.70
2022-10-01T08:18:50.267Z,2.40
2022-10-01T08:19:50.285Z,2.50
2022-10-01T08:20:50.250Z,2.50
2022-10-01T08:21:50.265Z,2.30
2022-10-01T08:22:50.278Z,2.50
2022-10-01T08:23:50.230Z,2.20
2022-10-01T08:24:50.202Z,2.20
2022-10-01T08:27:06.279Z,2.00
2022-10-01T08:28:07.373Z,2.10
2022-10-01T08:29:07.225Z,2.20
2022-10-01T08:30:07.215Z,2.40
2022-10-01T08:31:07.206Z,2.50
2022-10-01T08:32:07.274Z,2.30
2022-10-01T08:33:07.194Z,2.30
2022-10-01T08:34:07.266Z,2.40
2022-10-01T08:35:07.141Z,2.30
2022-10-01T08:36:07.140Z,2.10
2022-10-01T08:37:07.136Z,2.00
2022-10-01T08:38:07.112Z,2.30
2022-10-01T08:39:07.093Z,2.30
2022-10-01T08:40:07.144Z,2.10
2022-10-01T08:41:07.119Z,2.30
2022-10-01T08:42:07.058Z,2.10
2022-10-01T08:43:07.058Z,2.10
2022-10-01T08:44:07.029Z,2.00
2022-10-01T08:45:07.041Z,1.90
2022-10-01T08:46:07.116Z,1.70
2022-10-01T08:47:07.007Z,2.00
2022-10-01T08:48:07.005Z,1.90
2022-10-01T08:49:06.960Z,1.90
2022-10-01T08:50:06.984Z,1.90
2022-10-01T08:51:06.945Z,1.60
2022-10-01T08:52:06.961Z,1.60
2022-10-01T08:53:06.906Z,1.60
2022-10-01T08:54:06.917Z,1.60
2022-10-01T08:55:06.917Z,1.70
2022-10-01T08:56:06.892Z,2.00
2022-10-01T08:57:06.921Z,1.80
2022-10-01T08:58:06.908Z,1.70
2022-10-01T08:59:06.831Z,1.70
2022-10-01T09:00:06.838Z,2.00
2022-10-01T09:01:06.843Z,1.80
2022-10-01T09:02:06.846Z,1.70
2022-10-01T09:03:06.834Z,1.70
2022-10-01T09:04:06.815Z,1.50
2022-10-01T09:05:06.744Z,1.60
2022-10-01T09:06:06.775Z,1.50
2022-10-01T09:07:06.717Z,1.50
2022-10-01T09:08:06.806Z,1.50
2022-10-01T09:09:06.735Z,1.70
2022-10-01T09:10:06.743Z,1.50
2022-10-01T09:11:06.703Z,1.70
2022-10-01T09:12:06.722Z,1.40
2022-10-01T09:13:06.663Z,1.40
2022-10-01T09:14:06.691Z,1.60
2022-10-01T09:15:06.650Z,1.70
2022-10-01T09:16:06.658Z,1.60
2022-10-01T09:17:06.617Z,1.50
2022-10-01T09:18:06.609Z,1.60
2022-10-01T09:19:06.568Z,1.50
2022-10-01T09:20:06.604Z,1.50
2022-10-01T09:21:06.599Z,1.30
2022-10-01T09:22:06.537Z,1.40
2022-10-01T09:23:06.573Z,1.70
2022-10-01T09:24:06.523Z,1.30
2022-10-01T09:25:06.546Z,1.30
2022-10-01T09:26:06.530Z,1.50
2022-10-01T09:27:06.482Z,1.30
2022-10-01T09:28:06.549Z,1.40
2022-10-01T09:29:06.565Z,1.30
2022-10-01T09:30:06.455Z,1.20
2022-10-01T09:31:06.530Z,1.30
2022-10-01T09:32:06.460Z,1.40
2022-10-01T09:33:06.424Z,1.20
2022-10-01T09:34:06.386Z,1.30
2022-10-01T09:35:06.377Z,1.20
2022-10-01T09:36:06.358Z,1.10
2022-10-01T09:37:06.408Z,1.30
2022-10-01T09:38:06.339Z,1.10
2022-10-01T09:39:06.304Z,1.30
2022-10-01T09:40:06.315Z,1.30
2022-10-01T09:41:06.288Z,1.30
2022-10-01T09:42:06.282Z,1.20
2022-10-01T09:43:06.299Z,1.30
2022-10-01T09:44:06.270Z,1.30
2022-10-01T09:45:06.305Z,1.30
2022-10-01T09:46:06.354Z,1.20
2022-10-01T09:47:06.216Z,1.20
2022-10-01T09:48:06.195Z,1.30
2022-10-01T09:49:06.238Z,1.30
2022-10-01T09:50:06.224Z,1.30
2022-10-01T09:51:06.168Z,1.20
2022-10-01T09:52:06.243Z,1.20
2022-10-01T09:53:06.138Z,1.30
2022-10-01T09:54:06.150Z,1.40
2022-10-01T09:55:06.140Z,1.20
2022-10-01T09:56:06.108Z,1.30
2022-10-01T09:57:06.073Z,1.40
2022-10-01T09:58:06.099Z,1.20
2022-10-01T09:59:06.056Z,1.70
2022-10-01T10:00:06.067Z,1.30
2022-10-01T10:01:06.084Z,1.20
2022-10-01T10:02:06.124Z,1.30
2022-10-01T10:03:06.201Z,1.40
2022-10-01T10:04:06.008Z,1.20
2022-10-01T10:05:05.961Z,1.20
2022-10-01T10:06:06.021Z,1.50
2022-10-01T10:07:05.989Z,1.30
2022-10-01T10:08:05.947Z,1.30
2022-10-01T10:09:05.913Z,1.70
2022-10-01T10:10:05.951Z,1.70
2022-10-01T10:11:05.897Z,1.70
2022-10-01T10:12:05.907Z,1.60
2022-10-01T10:13:05.899Z,1.70
2022-10-01T10:14:05.860Z,1.80
2022-10-01T10:15:05.855Z,1.70
2022-10-01T10:16:05.998Z,1.90
2022-10-01T10:17:05.816Z,1.90
2022-10-01T10:18:05.829Z,1.70
2022-10-01T10:19:05.817Z,1.90
2022-10-01T10:20:05.785Z,1.90
2022-10-01T10:21:05.781Z,1.80
2022-10-01T10:22:05.846Z,2.00
2022-10-01T10:23:05.739Z,1.90
2022-10-01T10:24:05.727Z,1.80
2022-10-01T10:25:05.760Z,1.90
2022-10-01T10:26:05.724Z,1.70
2022-10-01T10:27:05.703Z,2.00
2022-10-01T10:28:05.772Z,1.90
2022-10-01T10:29:05.693Z,2.10
2022-10-01T10:30:05.665Z,2.10
2022-10-01T10:31:05.791Z,2.00
2022-10-01T10:32:05.642Z,2.20
2022-10-01T10:33:05.657Z,2.20
2022-10-01T10:34:05.616Z,2.70
2022-10-01T10:35:05.572Z,2.80
2022-10-01T10:36:05.611Z,2.80
2022-10-01T10:37:05.586Z,3.00
2022-10-01T10:38:05.554Z,3.20
2022-10-01T10:39:05.537Z,3.30
2022-10-01T10:40:05.542Z,3.30
2022-10-01T10:41:05.551Z,2.80
2022-10-01T10:42:05.558Z,3.20
2022-10-01T10:43:05.537Z,3.30
2022-10-01T10:44:05.550Z,2.90
2022-10-01T10:45:05.444Z,3.40
2022-10-01T10:46:05.457Z,3.40
2022-10-01T10:47:05.456Z,3.50
2022-10-01T10:48:05.461Z,3.60
2022-10-01T10:49:05.394Z,3.40
2022-10-01T10:50:05.421Z,3.50
2022-10-01T10:51:05.416Z,3.50
2022-10-01T10:52:05.406Z,3.20
2022-10-01T10:53:05.370Z,3.30
2022-10-01T10:54:05.372Z,3.30
2022-10-01T10:55:05.324Z,3.10
2022-10-01T10:56:05.333Z,3.00
2022-10-01T10:57:05.287Z,2.60
2022-10-01T10:58:05.378Z,2.60
2022-10-01T10:59:05.286Z,2.80
2022-10-01T11:00:05.292Z,2.30
2022-10-01T11:01:05.309Z,2.80
2022-10-01T11:02:05.446Z,2.70
2022-10-01T11:03:05.229Z,2.80
2022-10-01T11:04:05.279Z,3.00
2022-10-01T11:05:05.212Z,2.70
2022-10-01T11:06:05.189Z,3.00
2022-10-01T11:07:05.232Z,2.90
2022-10-01T11:08:05.154Z,3.30
2022-10-01T11:09:05.248Z,2.90
2022-10-01T11:10:05.171Z,3.60
2022-10-01T11:11:05.101Z,3.70
2022-10-01T11:12:05.198Z,4.10
2022-10-01T11:13:05.094Z,3.70
2022-10-01T11:14:05.129Z,3.90
2022-10-01T11:15:05.138Z,4.20
2022-10-01T11:16:05.089Z,4.40
2022-10-01T11:17:05.058Z,4.40
2022-10-01T11:18:05.053Z,4.10
2022-10-01T11:19:05.023Z,4.00
2022-10-01T11:20:05.027Z,4.10
2022-10-01T11:21:05.080Z,4.20
2022-10-01T11:22:05.034Z,4.30
2022-10-01T11:23:04.954Z,3.70
2022-10-01T11:24:04.948Z,3.30
2022-10-01T11:25:04.919Z,3.20
2022-10-01T11:26:05.091Z,2.80
2022-10-01T11:27:04.913Z,2.70
2022-10-01T11:28:04.965Z,2.80
2022-10-01T11:29:04.865Z,2.60
2022-10-01T11:30:04.862Z,2.80
2022-10-01T11:31:04.925Z,2.70
2022-10-01T11:32:04.872Z,2.70
2022-10-01T11:33:04.820Z,2.40
2022-10-01T11:34:04.808Z,2.40
2022-10-01T11:35:04.870Z,2.40
2022-10-01T11:36:04.786Z,2.10
2022-10-01T11:37:04.764Z,2.30
2022-10-01T11:38:04.835Z,2.40
2022-10-01T11:39:04.770Z,2.50
2022-10-01T11:40:04.753Z,2.10
2022-10-01T11:41:04.779Z,2.20
2022-10-01T11:42:04.703Z,2.30
2022-10-01T11:43:04.743Z,2.10
2022-10-01T11:44:04.740Z,2.10
2022-10-01T11:45:04.682Z,2.10
2022-10-01T11:46:04.902Z,2.10
2022-10-01T11:47:04.643Z,2.00
2022-10-01T11:48:04.753Z,2.10
2022-10-01T11:49:04.653Z,2.10
2022-10-01T11:50:04.710Z,2.00
2022-10-01T11:51:04.573Z,2.10
2022-10-01T11:52:04.600Z,2.10
2022-10-01T11:53:04.566Z,1.90
2022-10-01T11:54:04.550Z,2.20
2022-10-01T11:55:04.619Z,2.30
2022-10-01T11:56:04.584Z,2.10
2022-10-01T11:57:04.553Z,1.90
2022-10-01T11:58:04.517Z,1.80
2022-10-01T11:59:04.501Z,2.00
2022-10-01T12:00:04.527Z,1.90
2022-10-01T12:01:04.445Z,2.10
2022-10-01T12:02:04.554Z,2.40
2022-10-01T12:03:04.432Z,2.00
2022-10-01T12:04:04.427Z,1.90
2022-10-01T12:05:04.537Z,2.20
2022-10-01T12:06:04.393Z,1.60
2022-10-01T12:07:04.395Z,1.80
2022-10-01T12:08:04.404Z,2.00
2022-10-01T12:09:04.364Z,1.60
2022-10-01T12:10:04.349Z,1.70
2022-10-01T12:11:04.344Z,2.10
2022-10-01T12:12:04.330Z,1.80
2022-10-01T12:13:04.329Z,2.40
2022-10-01T12:14:04.485Z,1.90
2022-10-01T12:15:07.030Z,2.10
2022-10-01T12:16:04.310Z,1.90
2022-10-01T12:17:04.280Z,2.10
2022-10-01T12:18:04.248Z,1.90
2022-10-01T12:19:04.216Z,2.10
2022-10-01T12:20:04.314Z,2.30
2022-10-01T12:21:04.188Z,1.80
2022-10-01T12:22:04.194Z,1.90
2022-10-01T12:23:04.236Z,1.90
2022-10-01T12:24:04.166Z,1.80
2022-10-01T12:25:04.220Z,1.60
2022-10-01T12:26:04.187Z,1.50
2022-10-01T12:27:04.132Z,1.70
2022-10-01T12:28:04.174Z,1.70
2022-10-01T12:29:04.139Z,1.60
2022-10-01T12:30:04.088Z,1.70
2022-10-01T12:31:04.106Z,1.80
2022-10-01T12:32:04.178Z,2.00
2022-10-01T12:33:04.029Z,1.80
2022-10-01T12:34:04.024Z,1.60
2022-10-01T12:35:04.004Z,1.90
2022-10-01T12:36:04.107Z,1.80
2022-10-01T12:37:03.988Z,1.80
2022-10-01T12:38:04.019Z,1.80
2022-10-01T12:39:03.967Z,1.70
2022-10-01T12:40:03.987Z,1.80
2022-10-01T12:41:03.953Z,1.60
2022-10-01T12:42:03.931Z,1.60
2022-10-01T12:43:04.509Z,1.70
2022-10-01T12:44:03.936Z,1.70
2022-10-01T12:45:03.883Z,1.50
2022-10-01T12:46:03.984Z,1.50
2022-10-01T12:47:03.888Z,2.00
2022-10-01T12:48:03.847Z,1.80
2022-10-01T12:49:03.887Z,1.60
2022-10-01T12:50:03.852Z,1.90
2022-10-01T12:51:03.834Z,1.50
2022-10-01T12:52:03.780Z,1.90
2022-10-01T12:53:03.823Z,1.60
2022-10-01T12:54:03.757Z,2.10
2022-10-01T12:55:03.801Z,2.00
2022-10-01T12:56:03.755Z,2.00
2022-10-01T12:57:03.734Z,1.70
2022-10-01T12:58:03.718Z,1.80
2022-10-01T12:59:03.717Z,1.90
2022-10-01T13:00:03.719Z,2.40
2022-10-01T13:01:03.754Z,2.20
2022-10-01T13:02:03.757Z,2.00
2022-10-01T13:03:03.649Z,2.50
2022-10-01T13:04:03.817Z,2.00
2022-10-01T13:05:03.623Z,2.00
2022-10-01T13:06:03.653Z,1.90
2022-10-01T13:07:03.593Z,2.10
2022-10-01T13:08:03.600Z,2.10
2022-10-01T13:09:03.622Z,2.00
2022-10-01T13:10:03.540Z,2.10
2022-10-01T13:11:03.557Z,2.10
2022-10-01T13:12:03.529Z,2.40
2022-10-01T13:13:03.525Z,2.80
2022-10-01T13:14:03.567Z,2.00
2022-10-01T13:15:03.515Z,2.10
2022-10-01T13:16:03.525Z,1.90
2022-10-01T13:17:03.489Z,1.90
2022-10-01T13:18:03.445Z,1.80
2022-10-01T13:19:03.436Z,1.90
2022-10-01T13:20:03.461Z,1.90